sensor_id;sensor_type;location;lat;lon;timestamp;P1;durP1;ratioP1;P2;durP2;ratioP2
68993;SDS011;56054;50.968;5.816;2022-08-19T00:02:44;21.20;;;16.10;;
68993;SDS011;56054;50.968;5.816;2022-08-19T00:05:52;22.23;;;16.48;;
68993;SDS011;56054;50.968;5.816;2022-08-19T00:08:59;20.25;;;15.73;;
68993;SDS011;56054;50.968;5.816;2022-08-19T00:12:06;22.40;;;15.50;;
68993;SDS011;56054;50.968;5.816;2022-08-19T00:15:14;17.60;;;14.75;;
68993;SDS011;56054;50.968;5.816;2022-08-19T00:18:22;22.48;;;16.27;;
68993;SDS011;56054;50.968;5.816;2022-08-19T00:21:29;21.83;;;14.70;;
68993;SDS011;56054;50.968;5.816;2022-08-19T00:24:36;26.65;;;16.92;;
68993;SDS011;56054;50.968;5.816;2022-08-19T00:27:43;16.17;;;14.15;;
68993;SDS011;56054;50.968;5.816;2022-08-19T00:30:50;20.33;;;15.77;;
68993;SDS011;56054;50.968;5.816;2022-08-19T00:33:57;18.85;;;15.57;;
68993;SDS011;56054;50.968;5.816;2022-08-19T00:37:04;19.98;;;16.50;;
68993;SDS011;56054;50.968;5.816;2022-08-19T00:40:12;19.45;;;17.25;;
68993;SDS011;56054;50.968;5.816;2022-08-19T00:43:19;22.25;;;17.20;;
68993;SDS011;56054;50.968;5.816;2022-08-19T00:46:28;20.10;;;17.23;;
68993;SDS011;56054;50.968;5.816;2022-08-19T00:49:45;20.40;;;16.70;;
68993;SDS011;56054;50.968;5.816;2022-08-19T00:52:55;19.90;;;17.48;;
68993;SDS011;56054;50.968;5.816;2022-08-19T00:56:03;19.63;;;16.90;;
68993;SDS011;56054;50.968;5.816;2022-08-19T00:59:10;18.92;;;16.10;;
68993;SDS011;56054;50.968;5.816;2022-08-19T01:02:17;19.70;;;16.27;;
68993;SDS011;56054;50.968;5.816;2022-08-19T01:05:25;19.55;;;17.05;;
68993;SDS011;56054;50.968;5.816;2022-08-19T01:08:35;20.25;;;17.70;;
68993;SDS011;56054;50.968;5.816;2022-08-19T01:11:43;22.90;;;18.52;;
68993;SDS011;56054;50.968;5.816;2022-08-19T01:14:50;18.73;;;16.25;;
68993;SDS011;56054;50.968;5.816;2022-08-19T01:18:01;20.63;;;17.50;;
68993;SDS011;56054;50.968;5.816;2022-08-19T01:24:37;19.60;;;17.20;;
68993;SDS011;56054;50.968;5.816;2022-08-19T01:27:46;18.98;;;16.45;;
68993;SDS011;56054;50.968;5.816;2022-08-19T01:30:55;20.70;;;16.42;;
68993;SDS011;56054;50.968;5.816;2022-08-19T01:34:01;20.40;;;18.02;;
68993;SDS011;56054;50.968;5.816;2022-08-19T01:37:09;19.02;;;16.45;;
68993;SDS011;56054;50.968;5.816;2022-08-19T01:40:18;20.75;;;16.52;;
68993;SDS011;56054;50.968;5.816;2022-08-19T01:43:27;19.55;;;16.77;;
68993;SDS011;56054;50.968;5.816;2022-08-19T01:46:35;17.65;;;15.52;;
68993;SDS011;56054;50.968;5.816;2022-08-19T01:49:42;19.48;;;16.27;;
68993;SDS011;56054;50.968;5.816;2022-08-19T01:52:50;19.02;;;16.17;;
68993;SDS011;56054;50.968;5.816;2022-08-19T01:55:57;18.17;;;16.25;;
68993;SDS011;56054;50.968;5.816;2022-08-19T01:59:06;21.60;;;17.10;;
68993;SDS011;56054;50.968;5.816;2022-08-19T02:02:18;22.90;;;17.30;;
68993;SDS011;56054;50.968;5.816;2022-08-19T02:05:25;28.92;;;19.70;;
68993;SDS011;56054;50.968;5.816;2022-08-19T02:08:34;23.65;;;19.33;;
68993;SDS011;56054;50.968;5.816;2022-08-19T02:11:43;22.70;;;19.15;;
68993;SDS011;56054;50.968;5.816;2022-08-19T02:14:50;22.92;;;18.55;;
68993;SDS011;56054;50.968;5.816;2022-08-19T02:17:57;26.77;;;22.08;;
68993;SDS011;56054;50.968;5.816;2022-08-19T02:21:04;28.50;;;23.80;;
68993;SDS011;56054;50.968;5.816;2022-08-19T02:24:11;34.88;;;25.10;;
68993;SDS011;56054;50.968;5.816;2022-08-19T02:27:18;31.17;;;24.88;;
68993;SDS011;56054;50.968;5.816;2022-08-19T02:30:25;31.98;;;24.80;;
68993;SDS011;56054;50.968;5.816;2022-08-19T02:33:32;35.40;;;26.23;;
68993;SDS011;56054;50.968;5.816;2022-08-19T02:36:39;36.10;;;27.65;;
68993;SDS011;56054;50.968;5.816;2022-08-19T02:39:46;40.47;;;28.67;;
68993;SDS011;56054;50.968;5.816;2022-08-19T02:42:53;38.67;;;29.83;;
68993;SDS011;56054;50.968;5.816;2022-08-19T02:46:01;39.08;;;29.92;;
68993;SDS011;56054;50.968;5.816;2022-08-19T02:49:16;40.95;;;30.25;;
68993;SDS011;56054;50.968;5.816;2022-08-19T02:52:23;37.47;;;28.65;;
68993;SDS011;56054;50.968;5.816;2022-08-19T02:55:30;40.58;;;29.10;;
68993;SDS011;56054;50.968;5.816;2022-08-19T02:58:38;36.90;;;28.88;;
68993;SDS011;56054;50.968;5.816;2022-08-19T03:01:44;37.47;;;28.77;;
68993;SDS011;56054;50.968;5.816;2022-08-19T03:04:51;40.92;;;27.65;;
68993;SDS011;56054;50.968;5.816;2022-08-19T03:07:58;38.47;;;27.13;;
68993;SDS011;56054;50.968;5.816;2022-08-19T03:11:05;32.20;;;24.95;;
68993;SDS011;56054;50.968;5.816;2022-08-19T03:14:13;37.40;;;26.05;;
68993;SDS011;56054;50.968;5.816;2022-08-19T03:17:19;43.22;;;27.88;;
68993;SDS011;56054;50.968;5.816;2022-08-19T03:20:26;36.67;;;27.00;;
68993;SDS011;56054;50.968;5.816;2022-08-19T03:23:34;39.53;;;25.42;;
68993;SDS011;56054;50.968;5.816;2022-08-19T03:26:44;38.55;;;26.33;;
68993;SDS011;56054;50.968;5.816;2022-08-19T03:29:54;40.95;;;27.55;;
68993;SDS011;56054;50.968;5.816;2022-08-19T03:33:01;41.15;;;26.70;;
68993;SDS011;56054;50.968;5.816;2022-08-19T03:36:13;38.88;;;26.95;;
68993;SDS011;56054;50.968;5.816;2022-08-19T03:39:22;39.20;;;27.23;;
68993;SDS011;56054;50.968;5.816;2022-08-19T03:42:30;41.10;;;29.23;;
68993;SDS011;56054;50.968;5.816;2022-08-19T03:45:37;40.15;;;28.38;;
68993;SDS011;56054;50.968;5.816;2022-08-19T03:48:44;40.72;;;29.25;;
68993;SDS011;56054;50.968;5.816;2022-08-19T03:51:52;43.33;;;30.08;;
68993;SDS011;56054;50.968;5.816;2022-08-19T03:54:59;44.45;;;29.00;;
68993;SDS011;56054;50.968;5.816;2022-08-19T03:58:06;52.42;;;29.73;;
68993;SDS011;56054;50.968;5.816;2022-08-19T04:01:15;44.40;;;31.00;;
68993;SDS011;56054;50.968;5.816;2022-08-19T04:04:25;52.15;;;32.35;;
68993;SDS011;56054;50.968;5.816;2022-08-19T04:07:32;46.75;;;30.67;;
68993;SDS011;56054;50.968;5.816;2022-08-19T04:10:39;46.78;;;32.22;;
68993;SDS011;56054;50.968;5.816;2022-08-19T04:13:47;53.50;;;32.95;;
68993;SDS011;56054;50.968;5.816;2022-08-19T04:16:55;56.83;;;33.10;;
68993;SDS011;56054;50.968;5.816;2022-08-19T04:20:03;52.72;;;32.30;;
68993;SDS011;56054;50.968;5.816;2022-08-19T04:23:11;53.60;;;32.97;;
68993;SDS011;56054;50.968;5.816;2022-08-19T04:26:21;61.30;;;36.03;;
68993;SDS011;56054;50.968;5.816;2022-08-19T04:29:31;53.47;;;33.95;;
68993;SDS011;56054;50.968;5.816;2022-08-19T04:32:38;59.60;;;34.45;;
68993;SDS011;56054;50.968;5.816;2022-08-19T04:35:46;51.03;;;32.60;;
68993;SDS011;56054;50.968;5.816;2022-08-19T04:38:58;47.17;;;31.95;;
68993;SDS011;56054;50.968;5.816;2022-08-19T04:42:06;61.38;;;35.58;;
68993;SDS011;56054;50.968;5.816;2022-08-19T04:45:14;58.35;;;34.42;;
68993;SDS011;56054;50.968;5.816;2022-08-19T04:48:21;57.28;;;33.95;;
68993;SDS011;56054;50.968;5.816;2022-08-19T04:51:29;51.08;;;32.17;;
68993;SDS011;56054;50.968;5.816;2022-08-19T04:54:36;60.00;;;35.20;;
68993;SDS011;56054;50.968;5.816;2022-08-19T04:57:43;57.45;;;33.33;;
68993;SDS011;56054;50.968;5.816;2022-08-19T05:00:50;49.47;;;32.05;;
68993;SDS011;56054;50.968;5.816;2022-08-19T05:03:58;63.10;;;35.65;;
68993;SDS011;56054;50.968;5.816;2022-08-19T05:07:07;64.03;;;35.38;;
68993;SDS011;56054;50.968;5.816;2022-08-19T05:10:13;55.22;;;34.05;;
68993;SDS011;56054;50.968;5.816;2022-08-19T05:13:20;54.30;;;33.28;;
68993;SDS011;56054;50.968;5.816;2022-08-19T05:16:27;57.70;;;32.22;;
68993;SDS011;56054;50.968;5.816;2022-08-19T05:19:37;54.05;;;32.17;;
68993;SDS011;56054;50.968;5.816;2022-08-19T05:22:46;52.22;;;30.80;;
68993;SDS011;56054;50.968;5.816;2022-08-19T05:25:53;54.25;;;30.77;;
68993;SDS011;56054;50.968;5.816;2022-08-19T05:29:00;47.35;;;29.02;;
68993;SDS011;56054;50.968;5.816;2022-08-19T05:32:07;45.97;;;30.05;;
68993;SDS011;56054;50.968;5.816;2022-08-19T05:35:14;52.05;;;28.95;;
68993;SDS011;56054;50.968;5.816;2022-08-19T05:38:21;48.22;;;27.63;;
68993;SDS011;56054;50.968;5.816;2022-08-19T05:41:28;48.40;;;28.98;;
68993;SDS011;56054;50.968;5.816;2022-08-19T05:44:37;43.45;;;27.23;;
68993;SDS011;56054;50.968;5.816;2022-08-19T05:47:46;45.55;;;28.08;;
68993;SDS011;56054;50.968;5.816;2022-08-19T05:50:53;49.13;;;28.98;;
68993;SDS011;56054;50.968;5.816;2022-08-19T05:54:01;47.92;;;28.77;;
68993;SDS011;56054;50.968;5.816;2022-08-19T05:57:09;47.38;;;28.23;;
68993;SDS011;56054;50.968;5.816;2022-08-19T06:00:16;46.15;;;27.73;;
68993;SDS011;56054;50.968;5.816;2022-08-19T06:03:23;45.42;;;26.20;;
68993;SDS011;56054;50.968;5.816;2022-08-19T06:06:30;46.08;;;27.20;;
68993;SDS011;56054;50.968;5.816;2022-08-19T06:09:37;46.85;;;29.23;;
68993;SDS011;56054;50.968;5.816;2022-08-19T06:12:44;43.20;;;27.35;;
68993;SDS011;56054;50.968;5.816;2022-08-19T06:15:51;49.60;;;28.33;;
68993;SDS011;56054;50.968;5.816;2022-08-19T06:18:59;46.05;;;28.17;;
68993;SDS011;56054;50.968;5.816;2022-08-19T06:22:07;47.33;;;28.70;;
68993;SDS011;56054;50.968;5.816;2022-08-19T06:25:15;49.00;;;29.15;;
68993;SDS011;56054;50.968;5.816;2022-08-19T06:28:22;52.42;;;29.52;;
68993;SDS011;56054;50.968;5.816;2022-08-19T06:31:30;52.17;;;29.83;;
68993;SDS011;56054;50.968;5.816;2022-08-19T06:34:37;50.67;;;31.63;;
68993;SDS011;56054;50.968;5.816;2022-08-19T06:37:44;54.63;;;32.45;;
68993;SDS011;56054;50.968;5.816;2022-08-19T06:41:05;55.25;;;32.40;;
68993;SDS011;56054;50.968;5.816;2022-08-19T06:44:21;55.60;;;31.17;;
68993;SDS011;56054;50.968;5.816;2022-08-19T06:47:32;54.58;;;30.80;;
68993;SDS011;56054;50.968;5.816;2022-08-19T06:50:39;56.28;;;30.67;;
68993;SDS011;56054;50.968;5.816;2022-08-19T06:53:46;50.40;;;31.08;;
68993;SDS011;56054;50.968;5.816;2022-08-19T06:56:55;47.53;;;28.38;;
68993;SDS011;56054;50.968;5.816;2022-08-19T07:00:10;52.17;;;27.35;;
68993;SDS011;56054;50.968;5.816;2022-08-19T07:03:18;45.38;;;26.77;;
68993;SDS011;56054;50.968;5.816;2022-08-19T07:06:25;45.90;;;27.23;;
68993;SDS011;56054;50.968;5.816;2022-08-19T07:09:32;46.20;;;28.10;;
68993;SDS011;56054;50.968;5.816;2022-08-19T07:12:39;45.88;;;25.55;;
68993;SDS011;56054;50.968;5.816;2022-08-19T07:15:46;42.92;;;24.90;;
68993;SDS011;56054;50.968;5.816;2022-08-19T07:18:53;44.95;;;24.05;;
68993;SDS011;56054;50.968;5.816;2022-08-19T07:22:04;41.33;;;23.67;;
68993;SDS011;56054;50.968;5.816;2022-08-19T07:25:14;36.90;;;22.98;;
68993;SDS011;56054;50.968;5.816;2022-08-19T07:28:30;34.63;;;21.75;;
68993;SDS011;56054;50.968;5.816;2022-08-19T07:31:39;37.30;;;22.92;;
68993;SDS011;56054;50.968;5.816;2022-08-19T07:34:56;39.42;;;21.42;;
68993;SDS011;56054;50.968;5.816;2022-08-19T07:38:03;33.38;;;20.20;;
68993;SDS011;56054;50.968;5.816;2022-08-19T07:41:18;33.08;;;18.95;;
68993;SDS011;56054;50.968;5.816;2022-08-19T07:44:53;40.03;;;20.92;;
68993;SDS011;56054;50.968;5.816;2022-08-19T07:48:01;28.45;;;17.70;;
68993;SDS011;56054;50.968;5.816;2022-08-19T07:51:08;35.45;;;17.65;;
68993;SDS011;56054;50.968;5.816;2022-08-19T07:54:17;26.90;;;16.42;;
68993;SDS011;56054;50.968;5.816;2022-08-19T07:57:27;24.85;;;15.52;;
68993;SDS011;56054;50.968;5.816;2022-08-19T08:00:36;24.63;;;15.23;;
68993;SDS011;56054;50.968;5.816;2022-08-19T08:03:43;30.08;;;15.88;;
68993;SDS011;56054;50.968;5.816;2022-08-19T08:06:51;23.85;;;13.32;;
68993;SDS011;56054;50.968;5.816;2022-08-19T08:10:02;24.92;;;13.52;;
68993;SDS011;56054;50.968;5.816;2022-08-19T08:13:11;22.42;;;13.52;;
68993;SDS011;56054;50.968;5.816;2022-08-19T08:16:26;21.27;;;11.68;;
68993;SDS011;56054;50.968;5.816;2022-08-19T08:19:33;22.38;;;12.88;;
68993;SDS011;56054;50.968;5.816;2022-08-19T08:22:43;22.30;;;13.73;;
68993;SDS011;56054;50.968;5.816;2022-08-19T08:25:54;21.40;;;12.73;;
68993;SDS011;56054;50.968;5.816;2022-08-19T08:29:02;22.00;;;13.57;;
68993;SDS011;56054;50.968;5.816;2022-08-19T08:32:10;21.45;;;11.85;;
68993;SDS011;56054;50.968;5.816;2022-08-19T08:35:18;18.83;;;11.73;;
68993;SDS011;56054;50.968;5.816;2022-08-19T08:38:27;26.23;;;14.35;;
68993;SDS011;56054;50.968;5.816;2022-08-19T08:41:40;21.58;;;13.25;;
68993;SDS011;56054;50.968;5.816;2022-08-19T08:45:00;23.58;;;12.85;;
68993;SDS011;56054;50.968;5.816;2022-08-19T08:48:19;17.65;;;11.50;;
68993;SDS011;56054;50.968;5.816;2022-08-19T08:51:38;18.63;;;10.38;;
68993;SDS011;56054;50.968;5.816;2022-08-19T08:54:50;18.23;;;9.45;;
68993;SDS011;56054;50.968;5.816;2022-08-19T08:58:03;12.23;;;8.55;;
68993;SDS011;56054;50.968;5.816;2022-08-19T09:01:12;14.70;;;9.65;;
68993;SDS011;56054;50.968;5.816;2022-08-19T09:04:25;18.60;;;10.02;;
68993;SDS011;56054;50.968;5.816;2022-08-19T09:10:59;19.25;;;11.25;;
68993;SDS011;56054;50.968;5.816;2022-08-19T09:15:18;18.90;;;11.23;;
68993;SDS011;56054;50.968;5.816;2022-08-19T09:25:33;19.45;;;11.43;;
68993;SDS011;56054;50.968;5.816;2022-08-19T09:28:41;19.35;;;11.73;;
68993;SDS011;56054;50.968;5.816;2022-08-19T09:31:50;16.27;;;9.88;;
68993;SDS011;56054;50.968;5.816;2022-08-19T09:34:57;17.02;;;11.10;;
68993;SDS011;56054;50.968;5.816;2022-08-19T09:38:04;21.42;;;11.88;;
68993;SDS011;56054;50.968;5.816;2022-08-19T09:41:16;18.73;;;10.63;;
68993;SDS011;56054;50.968;5.816;2022-08-19T09:44:32;18.20;;;9.48;;
68993;SDS011;56054;50.968;5.816;2022-08-19T09:47:46;15.95;;;10.27;;
68993;SDS011;56054;50.968;5.816;2022-08-19T09:50:54;11.07;;;8.07;;
68993;SDS011;56054;50.968;5.816;2022-08-19T09:54:09;17.30;;;10.93;;
68993;SDS011;56054;50.968;5.816;2022-08-19T09:57:16;16.60;;;10.60;;
68993;SDS011;56054;50.968;5.816;2022-08-19T10:00:24;19.33;;;10.63;;
68993;SDS011;56054;50.968;5.816;2022-08-19T10:03:39;20.42;;;11.65;;
68993;SDS011;56054;50.968;5.816;2022-08-19T10:06:46;18.23;;;9.95;;
68993;SDS011;56054;50.968;5.816;2022-08-19T10:09:55;18.58;;;10.93;;
68993;SDS011;56054;50.968;5.816;2022-08-19T10:13:02;19.27;;;11.77;;
68993;SDS011;56054;50.968;5.816;2022-08-19T10:16:11;17.35;;;12.30;;
68993;SDS011;56054;50.968;5.816;2022-08-19T10:19:23;16.90;;;11.55;;
68993;SDS011;56054;50.968;5.816;2022-08-19T10:26:13;19.73;;;11.43;;
68993;SDS011;56054;50.968;5.816;2022-08-19T11:19:14;14.40;;;7.70;;
68993;SDS011;56054;50.968;5.816;2022-08-19T12:13:06;9.15;;;2.95;;
68993;SDS011;56054;50.968;5.816;2022-08-19T12:17:04;8.32;;;2.85;;
68993;SDS011;56054;50.968;5.816;2022-08-19T12:20:18;4.40;;;3.05;;
68993;SDS011;56054;50.968;5.816;2022-08-19T12:23:33;3.03;;;2.25;;
68993;SDS011;56054;50.968;5.816;2022-08-19T12:26:54;6.22;;;2.65;;
68993;SDS011;56054;50.968;5.816;2022-08-19T12:30:04;7.28;;;3.00;;
68993;SDS011;56054;50.968;5.816;2022-08-19T12:36:58;4.75;;;2.40;;
68993;SDS011;56054;50.968;5.816;2022-08-19T12:57:41;6.05;;;2.10;;
68993;SDS011;56054;50.968;5.816;2022-08-19T13:00:50;3.88;;;2.35;;
68993;SDS011;56054;50.968;5.816;2022-08-19T13:32:02;5.90;;;1.60;;
68993;SDS011;56054;50.968;5.816;2022-08-19T13:35:17;4.20;;;1.50;;
68993;SDS011;56054;50.968;5.816;2022-08-19T13:38:59;3.42;;;1.83;;
68993;SDS011;56054;50.968;5.816;2022-08-19T13:42:29;2.15;;;1.75;;
68993;SDS011;56054;50.968;5.816;2022-08-19T13:45:45;3.60;;;1.50;;
68993;SDS011;56054;50.968;5.816;2022-08-19T13:52:47;7.28;;;1.50;;
68993;SDS011;56054;50.968;5.816;2022-08-19T13:56:19;2.38;;;1.75;;
68993;SDS011;56054;50.968;5.816;2022-08-19T14:00:03;4.05;;;2.08;;
68993;SDS011;56054;50.968;5.816;2022-08-19T14:03:35;3.83;;;2.10;;
68993;SDS011;56054;50.968;5.816;2022-08-19T14:07:21;2.25;;;1.77;;
68993;SDS011;56054;50.968;5.816;2022-08-19T15:21:22;7.03;;;1.50;;
68993;SDS011;56054;50.968;5.816;2022-08-19T15:32:11;13.75;;;1.60;;
68993;SDS011;56054;50.968;5.816;2022-08-19T15:53:21;4.20;;;1.15;;
68993;SDS011;56054;50.968;5.816;2022-08-19T15:57:10;2.90;;;1.20;;
68993;SDS011;56054;50.968;5.816;2022-08-19T16:01:09;3.80;;;1.02;;
68993;SDS011;56054;50.968;5.816;2022-08-19T16:27:43;4.75;;;1.88;;
68993;SDS011;56054;50.968;5.816;2022-08-19T16:30:53;2.33;;;1.80;;
68993;SDS011;56054;50.968;5.816;2022-08-19T16:37:43;2.83;;;1.90;;
68993;SDS011;56054;50.968;5.816;2022-08-19T16:48:39;5.78;;;1.70;;
68993;SDS011;56054;50.968;5.816;2022-08-19T16:51:54;4.90;;;2.60;;
68993;SDS011;56054;50.968;5.816;2022-08-19T16:55:24;2.70;;;2.05;;
68993;SDS011;56054;50.968;5.816;2022-08-19T16:58:56;3.80;;;2.20;;
68993;SDS011;56054;50.968;5.816;2022-08-19T17:10:43;3.45;;;2.08;;
68993;SDS011;56054;50.968;5.816;2022-08-19T17:14:11;5.70;;;2.50;;
68993;SDS011;56054;50.968;5.816;2022-08-19T17:21:54;3.92;;;2.10;;
68993;SDS011;56054;50.968;5.816;2022-08-19T17:43:57;9.07;;;3.42;;
68993;SDS011;56054;50.968;5.816;2022-08-19T17:54:39;5.28;;;2.80;;
68993;SDS011;56054;50.968;5.816;2022-08-19T17:58:00;5.90;;;3.25;;
68993;SDS011;56054;50.968;5.816;2022-08-19T18:01:30;4.30;;;2.13;;
68993;SDS011;56054;50.968;5.816;2022-08-19T18:05:06;9.80;;;2.30;;
68993;SDS011;56054;50.968;5.816;2022-08-19T18:19:45;10.07;;;2.03;;
68993;SDS011;56054;50.968;5.816;2022-08-19T18:59:27;10.52;;;1.70;;
68993;SDS011;56054;50.968;5.816;2022-08-19T19:03:06;6.57;;;1.70;;
68993;SDS011;56054;50.968;5.816;2022-08-19T19:17:46;3.42;;;1.80;;
68993;SDS011;56054;50.968;5.816;2022-08-19T19:21:08;8.05;;;2.28;;
68993;SDS011;56054;50.968;5.816;2022-08-19T19:24:38;6.18;;;2.15;;
68993;SDS011;56054;50.968;5.816;2022-08-19T19:28:02;5.13;;;2.10;;
68993;SDS011;56054;50.968;5.816;2022-08-19T19:31:17;7.22;;;2.25;;
